FDST

Siteki Airport

Siteki, Swaziland
METAR FDST 251400Z AUTO 01004G22KT //// // ////// 30/14 Q1012
Observed Flight Rules
Sep-25 @ 14:00 UTC (an hour ago)
Wind
10° at 4 knots
 Gusting to 22 knots
Temperatures Readings
Current 30°C / 86°F
Dewpoint 14°C / 57°F
Humidity 38%
Altimeter 29.88" Hg
Pressure 1012 hPa
Elevation 667
METAR FDST 251400Z AUTO 01004G22KT //// // ////// 30/14 Q1012
Observed Flight Rules
Sep-25 @ 14:00 UTC
(an hour ago)
Wind
10° at 4 knots
 Gusting to 22 knots
Temperature Dewpoint
30°C / 86°F 14°C / 57°F
Humidity Altimeter Pressure
38% 29.88" Hg 1012 hPa